sensor_id;sensor_type;location;lat;lon;timestamp;P1;durP1;ratioP1;P2;durP2;ratioP2
74530;SDS011;63010;55.668;37.878;2022-09-09T00:02:20;2.67;;;1.00;;
74530;SDS011;63010;55.668;37.878;2022-09-09T00:07:48;2.92;;;0.95;;
74530;SDS011;63010;55.668;37.878;2022-09-09T00:16:15;2.13;;;1.10;;
74530;SDS011;63010;55.668;37.878;2022-09-09T00:18:29;1.13;;;0.75;;
74530;SDS011;63010;55.668;37.878;2022-09-09T00:23:39;2.00;;;0.80;;
74530;SDS011;63010;55.668;37.878;2022-09-09T00:26:22;1.98;;;0.75;;
74530;SDS011;63010;55.668;37.878;2022-09-09T00:29:01;1.80;;;0.90;;
74530;SDS011;63010;55.668;37.878;2022-09-09T00:31:37;3.35;;;0.80;;
74530;SDS011;63010;55.668;37.878;2022-09-09T00:36:39;2.38;;;0.80;;
74530;SDS011;63010;55.668;37.878;2022-09-09T00:39:08;1.55;;;0.70;;
74530;SDS011;63010;55.668;37.878;2022-09-09T00:44:28;2.45;;;1.20;;
74530;SDS011;63010;55.668;37.878;2022-09-09T00:49:32;1.67;;;0.73;;
74530;SDS011;63010;55.668;37.878;2022-09-09T00:55:20;1.83;;;1.10;;
74530;SDS011;63010;55.668;37.878;2022-09-09T00:57:47;1.15;;;0.80;;
74530;SDS011;63010;55.668;37.878;2022-09-09T01:00:21;1.58;;;0.82;;
74530;SDS011;63010;55.668;37.878;2022-09-09T01:02:53;1.88;;;0.70;;
74530;SDS011;63010;55.668;37.878;2022-09-09T01:07:58;1.13;;;0.63;;
74530;SDS011;63010;55.668;37.878;2022-09-09T01:13:22;1.70;;;1.00;;
74530;SDS011;63010;55.668;37.878;2022-09-09T01:15:50;1.30;;;0.70;;
74530;SDS011;63010;55.668;37.878;2022-09-09T01:18:19;1.50;;;1.23;;
74530;SDS011;63010;55.668;37.878;2022-09-09T01:26:14;1.13;;;0.70;;
74530;SDS011;63010;55.668;37.878;2022-09-09T01:28:44;1.52;;;0.80;;
74530;SDS011;63010;55.668;37.878;2022-09-09T01:31:14;1.45;;;0.80;;
74530;SDS011;63010;55.668;37.878;2022-09-09T01:33:43;2.03;;;0.90;;
74530;SDS011;63010;55.668;37.878;2022-09-09T01:36:10;2.05;;;0.85;;
74530;SDS011;63010;55.668;37.878;2022-09-09T01:38:46;1.05;;;0.70;;
74530;SDS011;63010;55.668;37.878;2022-09-09T01:41:12;0.88;;;0.60;;
74530;SDS011;63010;55.668;37.878;2022-09-09T01:43:37;1.17;;;0.68;;
74530;SDS011;63010;55.668;37.878;2022-09-09T01:46:03;1.98;;;0.75;;
74530;SDS011;63010;55.668;37.878;2022-09-09T01:48:29;1.65;;;0.98;;
74530;SDS011;63010;55.668;37.878;2022-09-09T01:50:56;1.58;;;0.60;;
74530;SDS011;63010;55.668;37.878;2022-09-09T01:53:22;1.48;;;0.80;;
74530;SDS011;63010;55.668;37.878;2022-09-09T01:55:56;1.65;;;0.80;;
74530;SDS011;63010;55.668;37.878;2022-09-09T02:01:20;1.35;;;0.90;;
74530;SDS011;63010;55.668;37.878;2022-09-09T02:04:01;2.05;;;0.75;;
74530;SDS011;63010;55.668;37.878;2022-09-09T02:06:34;1.52;;;0.75;;
74530;SDS011;63010;55.668;37.878;2022-09-09T02:09:06;0.70;;;0.50;;
74530;SDS011;63010;55.668;37.878;2022-09-09T02:11:34;1.83;;;0.70;;
74530;SDS011;63010;55.668;37.878;2022-09-09T02:14:08;2.22;;;1.00;;
74530;SDS011;63010;55.668;37.878;2022-09-09T02:19:14;1.20;;;0.75;;
74530;SDS011;63010;55.668;37.878;2022-09-09T02:21:50;2.88;;;1.20;;
74530;SDS011;63010;55.668;37.878;2022-09-09T02:24:18;2.33;;;1.20;;
74530;SDS011;63010;55.668;37.878;2022-09-09T02:26:45;1.45;;;0.93;;
74530;SDS011;63010;55.668;37.878;2022-09-09T02:29:26;1.67;;;1.00;;
74530;SDS011;63010;55.668;37.878;2022-09-09T02:31:56;1.77;;;1.05;;
74530;SDS011;63010;55.668;37.878;2022-09-09T02:34:28;1.30;;;0.90;;
74530;SDS011;63010;55.668;37.878;2022-09-09T02:36:56;2.22;;;1.20;;
74530;SDS011;63010;55.668;37.878;2022-09-09T02:39:22;1.73;;;1.08;;
74530;SDS011;63010;55.668;37.878;2022-09-09T02:41:48;1.63;;;1.17;;
74530;SDS011;63010;55.668;37.878;2022-09-09T02:44:14;1.75;;;1.02;;
74530;SDS011;63010;55.668;37.878;2022-09-09T02:57:55;2.55;;;1.73;;
74530;SDS011;63010;55.668;37.878;2022-09-09T03:00:22;2.10;;;1.45;;
74530;SDS011;63010;55.668;37.878;2022-09-09T03:02:50;2.17;;;1.23;;
74530;SDS011;63010;55.668;37.878;2022-09-09T03:05:16;3.38;;;1.35;;
74530;SDS011;63010;55.668;37.878;2022-09-09T03:07:42;2.05;;;1.27;;
74530;SDS011;63010;55.668;37.878;2022-09-09T03:10:07;2.08;;;1.20;;
74530;SDS011;63010;55.668;37.878;2022-09-09T03:12:33;1.83;;;1.20;;
74530;SDS011;63010;55.668;37.878;2022-09-09T03:14:59;1.98;;;1.73;;
74530;SDS011;63010;55.668;37.878;2022-09-09T03:17:24;2.63;;;1.48;;
74530;SDS011;63010;55.668;37.878;2022-09-09T03:19:50;2.67;;;1.52;;
74530;SDS011;63010;55.668;37.878;2022-09-09T03:22:17;2.80;;;1.50;;
74530;SDS011;63010;55.668;37.878;2022-09-09T03:24:43;2.88;;;1.30;;
74530;SDS011;63010;55.668;37.878;2022-09-09T03:27:08;2.45;;;1.38;;
74530;SDS011;63010;55.668;37.878;2022-09-09T03:29:34;3.45;;;1.90;;
74530;SDS011;63010;55.668;37.878;2022-09-09T03:31:59;4.25;;;1.83;;
74530;SDS011;63010;55.668;37.878;2022-09-09T03:34:25;4.60;;;1.60;;
74530;SDS011;63010;55.668;37.878;2022-09-09T03:36:50;3.80;;;1.88;;
74530;SDS011;63010;55.668;37.878;2022-09-09T03:39:16;3.10;;;1.60;;
74530;SDS011;63010;55.668;37.878;2022-09-09T03:41:41;4.32;;;1.63;;
74530;SDS011;63010;55.668;37.878;2022-09-09T03:44:10;2.42;;;1.27;;
74530;SDS011;63010;55.668;37.878;2022-09-09T03:46:35;2.80;;;1.70;;
74530;SDS011;63010;55.668;37.878;2022-09-09T03:49:01;3.42;;;1.83;;
74530;SDS011;63010;55.668;37.878;2022-09-09T03:51:27;1.77;;;1.35;;
74530;SDS011;63010;55.668;37.878;2022-09-09T03:53:52;4.13;;;1.50;;
74530;SDS011;63010;55.668;37.878;2022-09-09T03:56:20;3.05;;;1.52;;
74530;SDS011;63010;55.668;37.878;2022-09-09T03:58:46;3.40;;;2.20;;
74530;SDS011;63010;55.668;37.878;2022-09-09T04:01:12;4.90;;;1.95;;
74530;SDS011;63010;55.668;37.878;2022-09-09T04:03:39;3.40;;;1.40;;
74530;SDS011;63010;55.668;37.878;2022-09-09T04:06:05;5.28;;;1.90;;
74530;SDS011;63010;55.668;37.878;2022-09-09T04:08:32;2.80;;;1.77;;
74530;SDS011;63010;55.668;37.878;2022-09-09T04:10:59;2.90;;;1.80;;
74530;SDS011;63010;55.668;37.878;2022-09-09T04:13:26;2.85;;;1.73;;
74530;SDS011;63010;55.668;37.878;2022-09-09T04:15:53;2.80;;;1.70;;
74530;SDS011;63010;55.668;37.878;2022-09-09T04:18:20;3.25;;;1.40;;
74530;SDS011;63010;55.668;37.878;2022-09-09T04:20:47;4.18;;;1.85;;
74530;SDS011;63010;55.668;37.878;2022-09-09T04:25:43;5.80;;;1.88;;
74530;SDS011;63010;55.668;37.878;2022-09-09T04:28:10;4.97;;;1.95;;
74530;SDS011;63010;55.668;37.878;2022-09-09T04:30:35;5.68;;;2.03;;
74530;SDS011;63010;55.668;37.878;2022-09-09T04:33:01;4.80;;;1.60;;
74530;SDS011;63010;55.668;37.878;2022-09-09T04:35:26;3.35;;;1.85;;
74530;SDS011;63010;55.668;37.878;2022-09-09T04:37:52;3.42;;;1.63;;
74530;SDS011;63010;55.668;37.878;2022-09-09T04:40:17;2.63;;;1.73;;
74530;SDS011;63010;55.668;37.878;2022-09-09T04:42:43;4.95;;;2.20;;
74530;SDS011;63010;55.668;37.878;2022-09-09T04:45:09;2.65;;;1.52;;
74530;SDS011;63010;55.668;37.878;2022-09-09T04:47:36;4.45;;;1.63;;
74530;SDS011;63010;55.668;37.878;2022-09-09T04:50:02;5.40;;;1.83;;
74530;SDS011;63010;55.668;37.878;2022-09-09T04:52:28;3.63;;;1.50;;
74530;SDS011;63010;55.668;37.878;2022-09-09T04:54:54;5.15;;;1.75;;
74530;SDS011;63010;55.668;37.878;2022-09-09T04:57:19;4.00;;;1.63;;
74530;SDS011;63010;55.668;37.878;2022-09-09T04:59:45;5.43;;;2.00;;
74530;SDS011;63010;55.668;37.878;2022-09-09T05:02:11;2.28;;;1.63;;
74530;SDS011;63010;55.668;37.878;2022-09-09T05:04:36;4.20;;;1.77;;
74530;SDS011;63010;55.668;37.878;2022-09-09T05:07:02;3.45;;;1.65;;
74530;SDS011;63010;55.668;37.878;2022-09-09T05:09:27;2.97;;;1.70;;
74530;SDS011;63010;55.668;37.878;2022-09-09T05:11:54;2.15;;;1.25;;
74530;SDS011;63010;55.668;37.878;2022-09-09T05:14:19;4.40;;;1.60;;
74530;SDS011;63010;55.668;37.878;2022-09-09T05:16:45;4.50;;;1.92;;
74530;SDS011;63010;55.668;37.878;2022-09-09T05:19:12;2.15;;;1.75;;
74530;SDS011;63010;55.668;37.878;2022-09-09T05:21:37;4.78;;;2.10;;
74530;SDS011;63010;55.668;37.878;2022-09-09T05:24:03;6.30;;;2.05;;
74530;SDS011;63010;55.668;37.878;2022-09-09T05:26:29;2.90;;;1.35;;
74530;SDS011;63010;55.668;37.878;2022-09-09T05:28:54;2.30;;;1.80;;
74530;SDS011;63010;55.668;37.878;2022-09-09T05:31:20;3.20;;;1.42;;
74530;SDS011;63010;55.668;37.878;2022-09-09T05:33:47;1.70;;;0.90;;
74530;SDS011;63010;55.668;37.878;2022-09-09T05:36:15;2.53;;;1.25;;
74530;SDS011;63010;55.668;37.878;2022-09-09T05:38:42;2.97;;;1.23;;
74530;SDS011;63010;55.668;37.878;2022-09-09T05:43:38;2.80;;;1.25;;
74530;SDS011;63010;55.668;37.878;2022-09-09T05:46:14;4.47;;;1.45;;
74530;SDS011;63010;55.668;37.878;2022-09-09T05:48:41;2.60;;;1.50;;
74530;SDS011;63010;55.668;37.878;2022-09-09T05:51:26;2.20;;;1.42;;
74530;SDS011;63010;55.668;37.878;2022-09-09T05:53:55;3.70;;;1.58;;
74530;SDS011;63010;55.668;37.878;2022-09-09T05:56:24;2.25;;;1.17;;
74530;SDS011;63010;55.668;37.878;2022-09-09T05:58:52;2.40;;;1.20;;
74530;SDS011;63010;55.668;37.878;2022-09-09T06:01:22;1.90;;;1.20;;
74530;SDS011;63010;55.668;37.878;2022-09-09T06:03:50;3.22;;;1.05;;
74530;SDS011;63010;55.668;37.878;2022-09-09T06:06:21;5.22;;;0.82;;
74530;SDS011;63010;55.668;37.878;2022-09-09T06:08:53;3.45;;;1.15;;
74530;SDS011;63010;55.668;37.878;2022-09-09T06:11:25;2.67;;;1.02;;
74530;SDS011;63010;55.668;37.878;2022-09-09T06:13:57;2.55;;;1.08;;
74530;SDS011;63010;55.668;37.878;2022-09-09T06:16:25;1.30;;;1.15;;
74530;SDS011;63010;55.668;37.878;2022-09-09T06:18:52;1.33;;;0.80;;
74530;SDS011;63010;55.668;37.878;2022-09-09T06:23:45;1.05;;;0.73;;
74530;SDS011;63010;55.668;37.878;2022-09-09T06:26:16;2.00;;;0.90;;
74530;SDS011;63010;55.668;37.878;2022-09-09T06:28:44;3.35;;;0.85;;
74530;SDS011;63010;55.668;37.878;2022-09-09T06:31:11;2.08;;;0.65;;
74530;SDS011;63010;55.668;37.878;2022-09-09T06:33:39;1.15;;;0.82;;
74530;SDS011;63010;55.668;37.878;2022-09-09T06:36:27;1.30;;;0.80;;
74530;SDS011;63010;55.668;37.878;2022-09-09T06:38:53;2.17;;;0.60;;
74530;SDS011;63010;55.668;37.878;2022-09-09T06:41:20;1.65;;;0.65;;
74530;SDS011;63010;55.668;37.878;2022-09-09T06:43:47;1.25;;;0.73;;
74530;SDS011;63010;55.668;37.878;2022-09-09T06:46:19;1.15;;;0.73;;
74530;SDS011;63010;55.668;37.878;2022-09-09T06:48:47;2.08;;;0.70;;
74530;SDS011;63010;55.668;37.878;2022-09-09T06:51:17;1.20;;;0.70;;
74530;SDS011;63010;55.668;37.878;2022-09-09T06:53:47;1.08;;;0.63;;
74530;SDS011;63010;55.668;37.878;2022-09-09T06:56:19;1.92;;;0.88;;
74530;SDS011;63010;55.668;37.878;2022-09-09T06:58:45;2.30;;;0.88;;
74530;SDS011;63010;55.668;37.878;2022-09-09T07:01:12;1.73;;;1.00;;
74530;SDS011;63010;55.668;37.878;2022-09-09T07:03:39;1.48;;;1.00;;
74530;SDS011;63010;55.668;37.878;2022-09-09T07:06:08;1.83;;;0.73;;
74530;SDS011;63010;55.668;37.878;2022-09-09T07:08:39;1.65;;;0.52;;
74530;SDS011;63010;55.668;37.878;2022-09-09T07:11:06;1.55;;;0.80;;
74530;SDS011;63010;55.668;37.878;2022-09-09T07:13:33;1.80;;;0.70;;
74530;SDS011;63010;55.668;37.878;2022-09-09T07:16:09;1.58;;;0.65;;
74530;SDS011;63010;55.668;37.878;2022-09-09T07:18:36;2.08;;;0.80;;
74530;SDS011;63010;55.668;37.878;2022-09-09T07:21:02;1.10;;;0.60;;
74530;SDS011;63010;55.668;37.878;2022-09-09T07:25:55;1.90;;;1.00;;
74530;SDS011;63010;55.668;37.878;2022-09-09T07:28:21;1.25;;;0.45;;
74530;SDS011;63010;55.668;37.878;2022-09-09T07:30:57;2.95;;;1.00;;
74530;SDS011;63010;55.668;37.878;2022-09-09T07:33:28;1.10;;;0.55;;
74530;SDS011;63010;55.668;37.878;2022-09-09T07:36:01;4.03;;;1.08;;
74530;SDS011;63010;55.668;37.878;2022-09-09T07:38:28;1.25;;;0.90;;
74530;SDS011;63010;55.668;37.878;2022-09-09T07:41:02;0.77;;;0.50;;
74530;SDS011;63010;55.668;37.878;2022-09-09T07:43:29;1.33;;;0.65;;
74530;SDS011;63010;55.668;37.878;2022-09-09T07:45:57;2.58;;;0.60;;
74530;SDS011;63010;55.668;37.878;2022-09-09T07:48:23;2.03;;;1.17;;
74530;SDS011;63010;55.668;37.878;2022-09-09T07:50:48;1.67;;;0.57;;
74530;SDS011;63010;55.668;37.878;2022-09-09T07:53:14;0.60;;;0.40;;
74530;SDS011;63010;55.668;37.878;2022-09-09T07:55:39;2.58;;;0.50;;
74530;SDS011;63010;55.668;37.878;2022-09-09T07:58:05;0.80;;;0.57;;
74530;SDS011;63010;55.668;37.878;2022-09-09T08:00:31;1.30;;;0.70;;
74530;SDS011;63010;55.668;37.878;2022-09-09T08:02:58;0.98;;;0.60;;
74530;SDS011;63010;55.668;37.878;2022-09-09T08:05:25;0.98;;;0.80;;
74530;SDS011;63010;55.668;37.878;2022-09-09T08:07:51;2.20;;;0.50;;
74530;SDS011;63010;55.668;37.878;2022-09-09T08:10:16;2.33;;;0.52;;
74530;SDS011;63010;55.668;37.878;2022-09-09T08:12:43;0.85;;;0.50;;
74530;SDS011;63010;55.668;37.878;2022-09-09T08:15:08;1.63;;;0.65;;
74530;SDS011;63010;55.668;37.878;2022-09-09T08:17:34;0.85;;;0.73;;
74530;SDS011;63010;55.668;37.878;2022-09-09T08:19:59;1.42;;;0.52;;
74530;SDS011;63010;55.668;37.878;2022-09-09T08:22:30;1.10;;;0.70;;
74530;SDS011;63010;55.668;37.878;2022-09-09T08:24:55;3.20;;;1.00;;
74530;SDS011;63010;55.668;37.878;2022-09-09T08:27:21;0.98;;;0.90;;
74530;SDS011;63010;55.668;37.878;2022-09-09T08:29:47;0.70;;;0.52;;
74530;SDS011;63010;55.668;37.878;2022-09-09T08:32:13;0.93;;;0.93;;
74530;SDS011;63010;55.668;37.878;2022-09-09T08:34:38;2.30;;;1.00;;
74530;SDS011;63010;55.668;37.878;2022-09-09T08:37:04;2.63;;;0.93;;
74530;SDS011;63010;55.668;37.878;2022-09-09T08:39:29;1.42;;;0.68;;
74530;SDS011;63010;55.668;37.878;2022-09-09T08:55:22;1.95;;;1.10;;
74530;SDS011;63010;55.668;37.878;2022-09-09T08:57:53;5.53;;;0.93;;
74530;SDS011;63010;55.668;37.878;2022-09-09T09:00:21;1.73;;;0.93;;
74530;SDS011;63010;55.668;37.878;2022-09-09T09:05:18;1.25;;;0.85;;
74530;SDS011;63010;55.668;37.878;2022-09-09T09:10:48;1.05;;;0.80;;
74530;SDS011;63010;55.668;37.878;2022-09-09T09:13:34;2.67;;;0.80;;
74530;SDS011;63010;55.668;37.878;2022-09-09T09:16:11;1.60;;;1.00;;
74530;SDS011;63010;55.668;37.878;2022-09-09T09:18:44;1.67;;;1.13;;
74530;SDS011;63010;55.668;37.878;2022-09-09T09:21:16;2.22;;;0.50;;
74530;SDS011;63010;55.668;37.878;2022-09-09T09:23:51;1.83;;;1.00;;
74530;SDS011;63010;55.668;37.878;2022-09-09T09:26:29;0.75;;;0.75;;
74530;SDS011;63010;55.668;37.878;2022-09-09T09:28:58;2.92;;;1.48;;
74530;SDS011;63010;55.668;37.878;2022-09-09T09:31:25;0.75;;;0.57;;
74530;SDS011;63010;55.668;37.878;2022-09-09T09:33:54;2.70;;;1.52;;
74530;SDS011;63010;55.668;37.878;2022-09-09T09:36:25;3.35;;;1.25;;
74530;SDS011;63010;55.668;37.878;2022-09-09T09:39:00;1.13;;;0.68;;
74530;SDS011;63010;55.668;37.878;2022-09-09T09:41:49;1.00;;;0.73;;
74530;SDS011;63010;55.668;37.878;2022-09-09T09:44:33;1.83;;;1.00;;
74530;SDS011;63010;55.668;37.878;2022-09-09T09:47:35;1.17;;;0.85;;
74530;SDS011;63010;55.668;37.878;2022-09-09T09:50:00;1.20;;;0.70;;
74530;SDS011;63010;55.668;37.878;2022-09-09T09:52:31;1.35;;;0.70;;
74530;SDS011;63010;55.668;37.878;2022-09-09T09:54:57;1.95;;;0.93;;
74530;SDS011;63010;55.668;37.878;2022-09-09T09:57:29;1.77;;;1.10;;
74530;SDS011;63010;55.668;37.878;2022-09-09T10:02:43;2.63;;;0.95;;
74530;SDS011;63010;55.668;37.878;2022-09-09T10:05:15;1.30;;;0.85;;
74530;SDS011;63010;55.668;37.878;2022-09-09T10:07:42;2.28;;;0.70;;
74530;SDS011;63010;55.668;37.878;2022-09-09T10:10:21;1.83;;;1.10;;
74530;SDS011;63010;55.668;37.878;2022-09-09T10:20:54;2.83;;;1.15;;
74530;SDS011;63010;55.668;37.878;2022-09-09T10:39:50;1.73;;;1.55;;
74530;SDS011;63010;55.668;37.878;2022-09-09T10:42:30;1.27;;;0.70;;
74530;SDS011;63010;55.668;37.878;2022-09-09T10:51:05;3.00;;;0.85;;
74530;SDS011;63010;55.668;37.878;2022-09-09T10:56:44;1.67;;;1.20;;
74530;SDS011;63010;55.668;37.878;2022-09-09T10:59:23;1.50;;;1.02;;
74530;SDS011;63010;55.668;37.878;2022-09-09T11:01:57;1.20;;;1.10;;
74530;SDS011;63010;55.668;37.878;2022-09-09T11:04:28;1.35;;;0.90;;
74530;SDS011;63010;55.668;37.878;2022-09-09T11:07:02;1.30;;;1.20;;
74530;SDS011;63010;55.668;37.878;2022-09-09T11:09:35;1.15;;;0.68;;
74530;SDS011;63010;55.668;37.878;2022-09-09T11:12:09;0.70;;;0.57;;
74530;SDS011;63010;55.668;37.878;2022-09-09T11:14:45;1.58;;;0.90;;
74530;SDS011;63010;55.668;37.878;2022-09-09T11:17:20;2.17;;;0.73;;
74530;SDS011;63010;55.668;37.878;2022-09-09T11:19:49;1.58;;;0.50;;
74530;SDS011;63010;55.668;37.878;2022-09-09T11:24:41;1.50;;;0.70;;
74530;SDS011;63010;55.668;37.878;2022-09-09T11:41:12;1.52;;;1.42;;
74530;SDS011;63010;55.668;37.878;2022-09-09T11:46:06;0.82;;;0.70;;
74530;SDS011;63010;55.668;37.878;2022-09-09T11:48:34;0.68;;;0.55;;
74530;SDS011;63010;55.668;37.878;2022-09-09T11:51:06;1.13;;;0.75;;
74530;SDS011;63010;55.668;37.878;2022-09-09T11:53:34;1.85;;;1.38;;
74530;SDS011;63010;55.668;37.878;2022-09-09T11:56:13;1.08;;;0.65;;
74530;SDS011;63010;55.668;37.878;2022-09-09T11:58:43;1.95;;;0.70;;
74530;SDS011;63010;55.668;37.878;2022-09-09T12:01:30;1.27;;;1.13;;
74530;SDS011;63010;55.668;37.878;2022-09-09T12:04:09;0.90;;;0.80;;
74530;SDS011;63010;55.668;37.878;2022-09-09T12:09:45;1.50;;;1.40;;
74530;SDS011;63010;55.668;37.878;2022-09-09T12:14:57;1.52;;;1.42;;
74530;SDS011;63010;55.668;37.878;2022-09-09T12:17:25;1.48;;;1.38;;
74530;SDS011;63010;55.668;37.878;2022-09-09T12:25:48;1.20;;;0.95;;
74530;SDS011;63010;55.668;37.878;2022-09-09T12:28:48;1.30;;;1.20;;
74530;SDS011;63010;55.668;37.878;2022-09-09T12:31:21;1.17;;;1.08;;
74530;SDS011;63010;55.668;37.878;2022-09-09T12:34:09;1.63;;;1.45;;
74530;SDS011;63010;55.668;37.878;2022-09-09T12:36:58;1.17;;;1.10;;
74530;SDS011;63010;55.668;37.878;2022-09-09T12:39:29;1.27;;;1.05;;
74530;SDS011;63010;55.668;37.878;2022-09-09T12:42:02;1.58;;;1.48;;
74530;SDS011;63010;55.668;37.878;2022-09-09T12:44:29;1.73;;;1.10;;
74530;SDS011;63010;55.668;37.878;2022-09-09T12:46:56;1.88;;;1.30;;
74530;SDS011;63010;55.668;37.878;2022-09-09T12:49:32;1.55;;;1.30;;
74530;SDS011;63010;55.668;37.878;2022-09-09T12:52:06;2.38;;;1.27;;
74530;SDS011;63010;55.668;37.878;2022-09-09T12:54:35;2.65;;;1.30;;
74530;SDS011;63010;55.668;37.878;2022-09-09T12:57:02;1.23;;;0.93;;
74530;SDS011;63010;55.668;37.878;2022-09-09T12:59:39;1.73;;;1.02;;
74530;SDS011;63010;55.668;37.878;2022-09-09T13:02:23;2.10;;;1.17;;
74530;SDS011;63010;55.668;37.878;2022-09-09T13:04:50;1.50;;;0.98;;
74530;SDS011;63010;55.668;37.878;2022-09-09T13:07:18;0.95;;;0.52;;
74530;SDS011;63010;55.668;37.878;2022-09-09T13:09:45;2.22;;;0.60;;
74530;SDS011;63010;55.668;37.878;2022-09-09T13:12:21;1.23;;;0.70;;
74530;SDS011;63010;55.668;37.878;2022-09-09T13:14:51;1.90;;;0.70;;
74530;SDS011;63010;55.668;37.878;2022-09-09T13:17:22;1.13;;;0.52;;
74530;SDS011;63010;55.668;37.878;2022-09-09T13:19:50;1.08;;;0.60;;
74530;SDS011;63010;55.668;37.878;2022-09-09T13:22:31;3.13;;;0.85;;
74530;SDS011;63010;55.668;37.878;2022-09-09T13:32:58;1.10;;;0.57;;
74530;SDS011;63010;55.668;37.878;2022-09-09T13:37:52;1.67;;;1.13;;
74530;SDS011;63010;55.668;37.878;2022-09-09T13:42:46;1.42;;;1.00;;
74530;SDS011;63010;55.668;37.878;2022-09-09T13:45:19;2.13;;;0.93;;
74530;SDS011;63010;55.668;37.878;2022-09-09T13:47:47;1.35;;;1.00;;
74530;SDS011;63010;55.668;37.878;2022-09-09T13:50:20;1.70;;;1.00;;
74530;SDS011;63010;55.668;37.878;2022-09-09T13:52:49;2.05;;;0.90;;
74530;SDS011;63010;55.668;37.878;2022-09-09T13:55:18;2.60;;;1.10;;
74530;SDS011;63010;55.668;37.878;2022-09-09T14:00:19;1.83;;;0.93;;
74530;SDS011;63010;55.668;37.878;2022-09-09T14:02:46;1.25;;;0.80;;
74530;SDS011;63010;55.668;37.878;2022-09-09T14:05:13;2.05;;;1.13;;
74530;SDS011;63010;55.668;37.878;2022-09-09T14:07:40;2.80;;;1.65;;
74530;SDS011;63010;55.668;37.878;2022-09-09T14:10:06;4.00;;;1.33;;
74530;SDS011;63010;55.668;37.878;2022-09-09T14:12:32;1.10;;;0.90;;
74530;SDS011;63010;55.668;37.878;2022-09-09T14:14:58;1.50;;;1.00;;
74530;SDS011;63010;55.668;37.878;2022-09-09T14:17:25;2.60;;;1.30;;
74530;SDS011;63010;55.668;37.878;2022-09-09T14:19:56;2.72;;;1.13;;
74530;SDS011;63010;55.668;37.878;2022-09-09T14:22:22;2.10;;;1.02;;
74530;SDS011;63010;55.668;37.878;2022-09-09T14:24:48;1.80;;;1.00;;
74530;SDS011;63010;55.668;37.878;2022-09-09T14:27:14;2.03;;;1.30;;
74530;SDS011;63010;55.668;37.878;2022-09-09T14:29:40;2.97;;;1.27;;
74530;SDS011;63010;55.668;37.878;2022-09-09T14:32:05;1.80;;;1.02;;
74530;SDS011;63010;55.668;37.878;2022-09-09T14:34:31;4.32;;;1.33;;
74530;SDS011;63010;55.668;37.878;2022-09-09T14:37:00;1.65;;;1.25;;
74530;SDS011;63010;55.668;37.878;2022-09-09T14:39:26;3.88;;;1.50;;
74530;SDS011;63010;55.668;37.878;2022-09-09T14:41:51;2.40;;;1.40;;
74530;SDS011;63010;55.668;37.878;2022-09-09T14:44:17;3.90;;;1.10;;
74530;SDS011;63010;55.668;37.878;2022-09-09T14:46:43;2.70;;;1.20;;
74530;SDS011;63010;55.668;37.878;2022-09-09T14:49:09;1.92;;;0.90;;
74530;SDS011;63010;55.668;37.878;2022-09-09T14:51:37;1.83;;;1.23;;
74530;SDS011;63010;55.668;37.878;2022-09-09T14:54:03;1.63;;;1.02;;
74530;SDS011;63010;55.668;37.878;2022-09-09T14:56:30;1.58;;;1.05;;
74530;SDS011;63010;55.668;37.878;2022-09-09T14:58:57;3.55;;;1.00;;
74530;SDS011;63010;55.668;37.878;2022-09-09T15:01:26;1.88;;;1.38;;
74530;SDS011;63010;55.668;37.878;2022-09-09T15:03:53;2.67;;;0.95;;
74530;SDS011;63010;55.668;37.878;2022-09-09T15:06:21;2.28;;;0.93;;
74530;SDS011;63010;55.668;37.878;2022-09-09T15:08:49;1.50;;;1.02;;
74530;SDS011;63010;55.668;37.878;2022-09-09T15:11:15;2.03;;;1.27;;
74530;SDS011;63010;55.668;37.878;2022-09-09T15:13:41;2.40;;;1.30;;
74530;SDS011;63010;55.668;37.878;2022-09-09T15:16:09;3.05;;;1.05;;
74530;SDS011;63010;55.668;37.878;2022-09-09T15:18:36;2.10;;;1.00;;
74530;SDS011;63010;55.668;37.878;2022-09-09T15:21:05;4.00;;;0.95;;
74530;SDS011;63010;55.668;37.878;2022-09-09T15:23:32;2.25;;;1.27;;
74530;SDS011;63010;55.668;37.878;2022-09-09T15:25:58;3.40;;;0.98;;
74530;SDS011;63010;55.668;37.878;2022-09-09T15:28:23;1.60;;;0.85;;
74530;SDS011;63010;55.668;37.878;2022-09-09T15:30:49;3.13;;;1.10;;
74530;SDS011;63010;55.668;37.878;2022-09-09T15:33:17;1.83;;;1.00;;
74530;SDS011;63010;55.668;37.878;2022-09-09T15:35:43;4.45;;;1.98;;
74530;SDS011;63010;55.668;37.878;2022-09-09T15:38:09;2.60;;;1.30;;
74530;SDS011;63010;55.668;37.878;2022-09-09T15:40:34;2.10;;;1.20;;
74530;SDS011;63010;55.668;37.878;2022-09-09T15:43:00;4.57;;;1.42;;
74530;SDS011;63010;55.668;37.878;2022-09-09T15:45:27;3.08;;;1.83;;
74530;SDS011;63010;55.668;37.878;2022-09-09T15:47:52;3.25;;;1.42;;
74530;SDS011;63010;55.668;37.878;2022-09-09T15:50:18;2.80;;;1.48;;
74530;SDS011;63010;55.668;37.878;2022-09-09T15:52:43;2.13;;;1.15;;
74530;SDS011;63010;55.668;37.878;2022-09-09T15:55:09;2.95;;;1.20;;
74530;SDS011;63010;55.668;37.878;2022-09-09T15:57:35;2.92;;;1.25;;
74530;SDS011;63010;55.668;37.878;2022-09-09T16:00:02;3.38;;;1.67;;
74530;SDS011;63010;55.668;37.878;2022-09-09T16:02:29;2.08;;;1.20;;
74530;SDS011;63010;55.668;37.878;2022-09-09T16:04:55;3.85;;;1.50;;
74530;SDS011;63010;55.668;37.878;2022-09-09T16:07:22;4.28;;;1.42;;
74530;SDS011;63010;55.668;37.878;2022-09-09T16:09:48;4.47;;;1.77;;
74530;SDS011;63010;55.668;37.878;2022-09-09T16:12:16;2.60;;;1.50;;
74530;SDS011;63010;55.668;37.878;2022-09-09T16:14:42;2.33;;;1.40;;
74530;SDS011;63010;55.668;37.878;2022-09-09T16:17:08;4.97;;;1.50;;
74530;SDS011;63010;55.668;37.878;2022-09-09T16:19:33;2.85;;;1.65;;
74530;SDS011;63010;55.668;37.878;2022-09-09T16:21:59;2.50;;;1.42;;
74530;SDS011;63010;55.668;37.878;2022-09-09T16:24:26;3.45;;;1.55;;
74530;SDS011;63010;55.668;37.878;2022-09-09T16:26:52;6.28;;;1.42;;
74530;SDS011;63010;55.668;37.878;2022-09-09T16:29:19;2.13;;;1.48;;
74530;SDS011;63010;55.668;37.878;2022-09-09T16:31:46;3.30;;;1.73;;
74530;SDS011;63010;55.668;37.878;2022-09-09T16:34:13;4.05;;;1.60;;
74530;SDS011;63010;55.668;37.878;2022-09-09T16:36:41;4.65;;;1.90;;
74530;SDS011;63010;55.668;37.878;2022-09-09T16:39:09;8.43;;;2.30;;
74530;SDS011;63010;55.668;37.878;2022-09-09T16:41:37;4.55;;;1.75;;
74530;SDS011;63010;55.668;37.878;2022-09-09T16:44:04;7.05;;;1.88;;
74530;SDS011;63010;55.668;37.878;2022-09-09T16:46:35;3.10;;;1.50;;
74530;SDS011;63010;55.668;37.878;2022-09-09T16:49:04;5.00;;;1.70;;
74530;SDS011;63010;55.668;37.878;2022-09-09T16:51:32;4.05;;;1.65;;
74530;SDS011;63010;55.668;37.878;2022-09-09T16:54:00;5.13;;;1.70;;
74530;SDS011;63010;55.668;37.878;2022-09-09T16:56:29;6.55;;;1.73;;
74530;SDS011;63010;55.668;37.878;2022-09-09T16:58:59;4.82;;;1.83;;
74530;SDS011;63010;55.668;37.878;2022-09-09T17:01:30;2.83;;;1.65;;
74530;SDS011;63010;55.668;37.878;2022-09-09T17:04:00;3.80;;;2.03;;
74530;SDS011;63010;55.668;37.878;2022-09-09T17:06:28;4.00;;;1.90;;
74530;SDS011;63010;55.668;37.878;2022-09-09T17:08:56;6.47;;;2.38;;
74530;SDS011;63010;55.668;37.878;2022-09-09T17:11:23;7.63;;;2.05;;
74530;SDS011;63010;55.668;37.878;2022-09-09T17:13:49;5.05;;;2.10;;
74530;SDS011;63010;55.668;37.878;2022-09-09T17:16:16;4.30;;;2.13;;
74530;SDS011;63010;55.668;37.878;2022-09-09T17:18:43;4.75;;;2.05;;
74530;SDS011;63010;55.668;37.878;2022-09-09T17:21:15;5.65;;;2.15;;
74530;SDS011;63010;55.668;37.878;2022-09-09T17:23:43;5.25;;;2.20;;
74530;SDS011;63010;55.668;37.878;2022-09-09T17:28:37;5.07;;;2.38;;